Time;durP1;ratioP1;P1;durP2;ratioP2;P2;SDS_P1;SDS_P2;PMS_P1;PMS_P2;Temp;Humidity;BMP_temperature;BMP_pressure;BME280_temperature;BME280_humidity;BME280_pressure;Samples;Min_cycle;Max_cycle;Signal;HPM_P1;HPM_P2
2022/08/03 00:01:45;;;;;;;;;;;19.20;70.00;;;;;;5087914;28;20376;-80
2022/08/03 00:04:10;;;;;;;;;;;19.20;70.00;;;;;;5086311;28;19912;-80
2022/08/03 00:06:36;;;;;;;;;;;19.20;70.00;;;;;;5086427;28;19954;-80
2022/08/03 00:09:02;;;;;;;;;;;19.20;70.00;;;;;;5087825;28;19912;-80
2022/08/03 00:11:28;;;;;;;;;;;19.10;70.00;;;;;;5069754;28;20435;-80
2022/08/03 00:13:53;;;;;;;;;;;19.10;70.00;;;;;;5069758;28;20213;-80
2022/08/03 00:16:19;;;;;;;;;;;19.20;70.00;;;;;;5086662;28;19923;-80
2022/08/03 00:18:44;;;;;;;;;;;19.20;70.00;;;;;;5087771;28;19912;-80
2022/08/03 00:21:10;;;;;;;;;;;19.20;69.90;;;;;;5086500;28;19912;-80
2022/08/03 00:23:36;;;;;;;;;;;19.20;69.90;;;;;;5087829;28;20016;-80
2022/08/03 00:26:02;;;;;;;;;;;19.20;69.90;;;;;;5086354;28;19908;-78
2022/08/03 00:28:27;;;;;;;;;;;19.30;70.00;;;;;;5086387;28;19912;-80
2022/08/03 00:30:54;;;;;;;;;;;19.30;69.90;;;;;;5069529;28;19919;-80
2022/08/03 00:33:20;;;;;;;;;;;19.30;69.90;;;;;;5086427;28;20050;-80
2022/08/03 00:35:46;;;;;;;;;;;19.30;70.30;;;;;;5086427;28;19994;-80
2022/08/03 00:38:11;;;;;;;;;;;19.30;69.80;;;;;;5087621;28;20000;-80
2022/08/03 00:40:37;;;;;;;;;;;19.30;69.70;;;;;;5069236;28;19985;-80
2022/08/03 00:43:04;;;;;;;;;;;19.30;69.70;;;;;;5087486;28;19923;-80
2022/08/03 00:45:31;;;;;;;;;;;19.30;69.80;;;;;;5086235;28;20010;-80
2022/08/03 00:47:57;;;;;;;;;;;19.20;69.80;;;;;;5086315;28;19908;-80
2022/08/03 00:50:24;;;;;;;;;;;19.20;69.90;;;;;;5069478;28;19924;-80
2022/08/03 00:52:51;;;;;;;;;;;19.20;69.90;;;;;;5086295;28;19908;-80
2022/08/03 00:55:17;;;;;;;;;;;19.20;69.90;;;;;;5087403;28;19914;-80
2022/08/03 00:57:43;;;;;;;;;;;19.20;69.80;;;;;;5086119;28;19912;-80
2022/08/03 01:00:09;;;;;;;;;;;19.20;69.90;;;;;;5086043;28;19945;-80
2022/08/03 01:02:35;;;;;;;;;;;19.20;69.80;;;;;;5087231;28;19986;-80
2022/08/03 01:05:01;;;;;;;;;;;19.20;69.80;;;;;;5086107;28;20275;-80
2022/08/03 01:07:32;;;;;;;;;;;19.10;70.20;;;;;;5069101;28;20234;-80
2022/08/03 01:10:05;;;;;;;;;;;19.10;69.90;;;;;;5085925;28;19981;-80
2022/08/03 01:12:36;;;;;;;;;;;19.10;69.90;;;;;;5087627;28;19967;-80
2022/08/03 01:15:09;;;;;;;;;;;19.10;69.90;;;;;;5086091;28;20348;-80
2022/08/03 01:17:55;;;;;;;;;;;19.10;69.90;;;;;;5089105;28;19912;-80
2022/08/03 01:20:23;;;;;;;;;;;19.10;69.80;;;;;;5090915;28;20364;-80
2022/08/03 01:22:57;;;;;;;;;;;19.20;69.90;;;;;;5089416;28;19916;-80
2022/08/03 01:25:23;;;;;;;;;;;19.20;69.90;;;;;;5089598;28;19928;-80
2022/08/03 01:28:07;;;;;;;;;;;19.20;69.90;;;;;;5089600;28;19984;-80
2022/08/03 01:30:34;;;;;;;;;;;19.20;69.90;;;;;;5089300;28;19961;-80
2022/08/03 01:33:04;;;;;;;;;;;19.20;69.90;;;;;;5089493;28;19908;-80
2022/08/03 01:35:35;;;;;;;;;;;19.20;69.80;;;;;;5089339;28;19998;-80
2022/08/03 01:38:12;;;;;;;;;;;19.10;69.70;;;;;;5089401;28;19908;-78
2022/08/03 01:40:39;;;;;;;;;;;19.00;69.70;;;;;;5090349;28;19924;-80
2022/08/03 01:43:05;;;;;;;;;;;18.90;69.70;;;;;;5089048;28;19916;-80
2022/08/03 01:45:31;;;;;;;;;;;18.80;69.90;;;;;;5089090;28;19912;-80
2022/08/03 01:47:57;;;;;;;;;;;18.70;70.00;;;;;;5089100;28;19934;-80
2022/08/03 01:50:25;;;;;;;;;;;18.70;70.00;;;;;;5088957;28;19912;-80
2022/08/03 01:52:50;;;;;;;;;;;18.70;70.10;;;;;;5090301;28;20280;-80
2022/08/03 01:55:17;;;;;;;;;;;18.70;70.00;;;;;;5072034;28;19912;-80
2022/08/03 01:57:44;;;;;;;;;;;18.70;69.90;;;;;;5090171;28;19966;-80
2022/08/03 02:00:10;;;;;;;;;;;18.70;69.90;;;;;;5072094;28;19912;-80
2022/08/03 02:02:36;;;;;;;;;;;18.70;69.90;;;;;;5088834;28;19923;-80
2022/08/03 02:05:03;;;;;;;;;;;18.70;70.00;;;;;;5071960;28;19932;-78
2022/08/03 02:07:29;;;;;;;;;;;18.60;70.00;;;;;;5088802;28;19908;-80
2022/08/03 02:09:55;;;;;;;;;;;18.70;70.10;;;;;;5088732;28;19926;-80
2022/08/03 02:12:23;;;;;;;;;;;18.70;70.10;;;;;;5088514;28;20376;-80
2022/08/03 02:14:49;;;;;;;;;;;18.80;70.60;;;;;;5088585;28;20153;-80
2022/08/03 02:17:15;;;;;;;;;;;18.80;70.00;;;;;;5089924;28;20454;-80
2022/08/03 02:19:44;;;;;;;;;;;18.80;69.90;;;;;;5088478;28;19916;-80
2022/08/03 02:22:10;;;;;;;;;;;18.80;69.90;;;;;;5089683;28;20059;-80
2022/08/03 02:24:36;;;;;;;;;;;18.90;70.00;;;;;;5088599;28;19912;-80
2022/08/03 02:27:04;;;;;;;;;;;18.90;69.90;;;;;;5088488;28;19916;-80
2022/08/03 02:29:32;;;;;;;;;;;18.90;69.90;;;;;;5089101;28;19908;-80
2022/08/03 02:31:59;;;;;;;;;;;18.90;69.90;;;;;;5089573;28;19909;-80
2022/08/03 02:34:27;;;;;;;;;;;18.90;69.80;;;;;;5090102;28;19912;-79
2022/08/03 02:36:53;;;;;;;;;;;18.90;69.90;;;;;;5088170;28;19908;-79
2022/08/03 02:39:20;;;;;;;;;;;18.90;69.80;;;;;;5071058;28;19955;-79
2022/08/03 02:41:54;;;;;;;;;;;18.90;69.80;;;;;;5087948;28;19959;-79
2022/08/03 02:44:24;;;;;;;;;;;18.90;69.80;;;;;;5087954;28;20306;-79
2022/08/03 02:46:53;;;;;;;;;;;18.80;69.80;;;;;;5088095;28;19915;-79
2022/08/03 02:49:19;;;;;;;;;;;18.70;69.80;;;;;;5088081;28;20084;-78
2022/08/03 02:51:46;;;;;;;;;;;18.60;69.80;;;;;;5089066;28;19908;-79
2022/08/03 02:54:15;;;;;;;;;;;18.60;70.00;;;;;;5089147;28;20372;-79
2022/08/03 02:56:42;;;;;;;;;;;18.50;69.90;;;;;;5087789;28;19914;-79
2022/08/03 02:59:08;;;;;;;;;;;18.50;70.00;;;;;;5087684;28;19912;-79
2022/08/03 03:01:34;;;;;;;;;;;18.40;70.00;;;;;;5087634;28;19931;-79
2022/08/03 03:03:59;;;;;;;;;;;18.30;69.90;;;;;;5087745;28;19939;-79
2022/08/03 03:06:26;;;;;;;;;;;18.30;70.00;;;;;;5087755;28;19962;-79
2022/08/03 03:08:51;;;;;;;;;;;18.20;70.00;;;;;;5087542;28;19924;-79
2022/08/03 03:11:18;;;;;;;;;;;18.20;70.10;;;;;;5070561;28;20364;-79
2022/08/03 03:13:45;;;;;;;;;;;18.10;70.00;;;;;;5088713;28;19958;-79
2022/08/03 03:16:11;;;;;;;;;;;18.00;70.00;;;;;;5087471;28;19969;-79
2022/08/03 03:18:37;;;;;;;;;;;18.00;70.10;;;;;;5070553;28;19919;-79
2022/08/03 03:21:03;;;;;;;;;;;18.00;70.10;;;;;;5088554;28;19908;-78
2022/08/03 03:23:29;;;;;;;;;;;18.10;70.20;;;;;;5087199;28;19965;-79
2022/08/03 03:25:55;;;;;;;;;;;18.10;70.10;;;;;;5070460;28;20006;-79
2022/08/03 03:28:22;;;;;;;;;;;18.10;70.10;;;;;;5088587;28;19951;-78
2022/08/03 03:30:48;;;;;;;;;;;18.20;70.10;;;;;;5087109;28;19930;-79
2022/08/03 03:33:13;;;;;;;;;;;18.20;70.10;;;;;;5087190;28;20330;-79
2022/08/03 03:35:40;;;;;;;;;;;18.20;70.00;;;;;;5087137;28;19916;-79
2022/08/03 03:38:06;;;;;;;;;;;18.30;70.00;;;;;;5087230;28;20288;-79
2022/08/03 03:40:32;;;;;;;;;;;18.30;70.00;;;;;;5087422;28;19931;-79
2022/08/03 03:42:57;;;;;;;;;;;18.30;69.80;;;;;;5086931;28;19960;-79
2022/08/03 03:45:23;;;;;;;;;;;18.20;69.50;;;;;;5088292;28;19916;-79
2022/08/03 03:47:48;;;;;;;;;;;18.10;69.60;;;;;;5070179;28;19913;-79
2022/08/03 03:50:14;;;;;;;;;;;18.00;69.80;;;;;;5086928;28;19912;-79
2022/08/03 03:52:40;;;;;;;;;;;18.00;69.90;;;;;;5086887;28;20364;-78
2022/08/03 03:55:05;;;;;;;;;;;18.00;70.00;;;;;;5070094;28;20326;-79
2022/08/03 03:57:32;;;;;;;;;;;18.00;69.90;;;;;;5070015;28;19930;-79
2022/08/03 03:59:58;;;;;;;;;;;18.00;69.90;;;;;;5088057;28;20180;-79
2022/08/03 04:02:24;;;;;;;;;;;18.00;69.90;;;;;;5069886;28;20012;-79
2022/08/03 04:13:12;;;;;;;;;;;17.80;69.80;;;;;;5088543;28;19933;-79
2022/08/03 04:15:38;;;;;;;;;;;17.80;70.00;;;;;;5086584;28;20356;-79
2022/08/03 04:18:05;;;;;;;;;;;17.80;70.00;;;;;;5086608;28;19915;-79
2022/08/03 04:20:34;;;;;;;;;;;17.80;70.00;;;;;;5086541;28;19998;-79
2022/08/03 04:23:00;;;;;;;;;;;17.80;69.90;;;;;;5086469;28;19915;-79
2022/08/03 04:25:28;;;;;;;;;;;17.70;69.80;;;;;;5086617;28;19916;-79
2022/08/03 04:27:57;;;;;;;;;;;17.70;69.90;;;;;;5086507;28;19919;-79
2022/08/03 04:30:23;;;;;;;;;;;17.70;70.00;;;;;;5086546;28;19908;-79
2022/08/03 04:32:50;;;;;;;;;;;17.70;70.00;;;;;;5086605;28;19917;-79
2022/08/03 04:35:17;;;;;;;;;;;17.80;70.00;;;;;;5086385;28;20380;-79
2022/08/03 04:37:46;;;;;;;;;;;17.80;70.00;;;;;;5069651;28;19912;-79
2022/08/03 04:40:19;;;;;;;;;;;17.90;70.00;;;;;;5086066;28;19920;-79
2022/08/03 04:42:45;;;;;;;;;;;17.90;70.00;;;;;;5086313;28;19912;-79
2022/08/03 04:45:11;;;;;;;;;;;18.00;69.90;;;;;;5086395;28;19948;-79
2022/08/03 04:47:37;;;;;;;;;;;18.00;69.90;;;;;;5069656;28;19958;-79
2022/08/03 04:50:04;;;;;;;;;;;17.90;69.80;;;;;;5086203;28;19912;-79
2022/08/03 04:52:30;;;;;;;;;;;17.90;69.80;;;;;;5089524;28;19915;-79
2022/08/03 04:54:56;;;;;;;;;;;17.80;69.80;;;;;;5090010;28;20392;-79
2022/08/03 04:57:22;;;;;;;;;;;17.80;69.80;;;;;;5090212;28;19933;-79
2022/08/03 04:59:51;;;;;;;;;;;17.70;69.80;;;;;;5090080;28;19916;-78
2022/08/03 05:02:17;;;;;;;;;;;17.70;70.00;;;;;;5090058;28;19924;-78
2022/08/03 05:04:45;;;;;;;;;;;17.70;69.90;;;;;;5089991;28;19994;-78
2022/08/03 05:07:11;;;;;;;;;;;17.70;69.90;;;;;;5073327;28;20402;-79
2022/08/03 05:09:37;;;;;;;;;;;17.60;69.90;;;;;;5090005;28;19912;-78
2022/08/03 05:12:03;;;;;;;;;;;17.60;69.90;;;;;;5073197;28;19916;-78
2022/08/03 05:14:29;;;;;;;;;;;17.50;69.90;;;;;;5091037;28;20002;-78
2022/08/03 05:16:54;;;;;;;;;;;17.50;69.90;;;;;;5089715;28;20001;-78
2022/08/03 05:19:20;;;;;;;;;;;17.50;69.80;;;;;;5091098;28;19913;-79
2022/08/03 05:21:45;;;;;;;;;;;17.50;69.90;;;;;;5090878;28;20314;-78
2022/08/03 05:24:11;;;;;;;;;;;17.50;70.00;;;;;;5091202;28;19914;-78
2022/08/03 05:26:37;;;;;;;;;;;17.50;70.00;;;;;;5072610;28;20264;-78
2022/08/03 05:29:02;;;;;;;;;;;17.60;70.00;;;;;;5072395;28;19916;-79
2022/08/03 05:31:28;;;;;;;;;;;17.60;69.90;;;;;;5090683;28;19915;-78
2022/08/03 05:33:53;;;;;;;;;;;17.70;69.90;;;;;;5072893;28;20398;-78
2022/08/03 05:36:19;;;;;;;;;;;17.70;69.80;;;;;;5089585;28;20023;-78
2022/08/03 05:38:44;;;;;;;;;;;17.70;69.80;;;;;;5088996;28;19912;-79
2022/08/03 05:41:10;;;;;;;;;;;17.70;69.80;;;;;;5072512;28;19961;-79
2022/08/03 05:43:36;;;;;;;;;;;17.70;69.80;;;;;;5072261;28;19916;-81
2022/08/03 05:46:01;;;;;;;;;;;17.70;69.80;;;;;;5089206;28;20479;-78
2022/08/03 05:48:27;;;;;;;;;;;17.70;69.80;;;;;;5089211;28;19916;-79
2022/08/03 05:50:53;;;;;;;;;;;17.70;69.80;;;;;;5072125;28;20002;-78
2022/08/03 05:53:19;;;;;;;;;;;17.70;69.80;;;;;;5089101;28;19995;-78
2022/08/03 05:55:44;;;;;;;;;;;17.70;69.80;;;;;;5089072;28;19912;-79
2022/08/03 05:58:10;;;;;;;;;;;17.60;69.70;;;;;;5088669;28;19927;-79
2022/08/03 06:00:35;;;;;;;;;;;17.60;69.80;;;;;;5088850;28;19916;-78
2022/08/03 06:03:01;;;;;;;;;;;17.70;69.80;;;;;;5089292;28;20348;-78
2022/08/03 06:05:27;;;;;;;;;;;17.70;69.80;;;;;;5088744;28;19916;-79
2022/08/03 06:07:52;;;;;;;;;;;17.70;69.80;;;;;;5088363;28;20328;-79
2022/08/03 06:10:19;;;;;;;;;;;17.80;69.90;;;;;;5071498;28;19955;-79
2022/08/03 06:12:48;;;;;;;;;;;18.10;70.00;;;;;;5088542;28;20353;-78
2022/08/03 06:15:14;;;;;;;;;;;18.30;69.50;;;;;;5072088;28;20258;-79
2022/08/03 06:17:43;;;;;;;;;;;18.40;69.20;;;;;;5088370;28;19907;-78
2022/08/03 06:20:09;;;;;;;;;;;18.50;69.20;;;;;;5089694;28;19943;-78
2022/08/03 06:22:35;;;;;;;;;;;18.50;69.30;;;;;;5089609;28;20388;-79
2022/08/03 06:25:01;;;;;;;;;;;18.60;69.40;;;;;;5071680;28;19965;-79
2022/08/03 06:27:26;;;;;;;;;;;18.90;69.40;;;;;;5071452;28;20407;-79
2022/08/03 06:29:52;;;;;;;;;;;18.90;69.20;;;;;;5071255;28;19978;-79
2022/08/03 06:32:21;;;;;;;;;;;19.00;69.20;;;;;;5088261;28;19912;-79
2022/08/03 06:34:47;;;;;;;;;;;19.00;69.10;;;;;;5087963;28;19927;-78
2022/08/03 06:37:13;;;;;;;;;;;19.00;69.20;;;;;;5088212;28;20250;-79
2022/08/03 06:39:39;;;;;;;;;;;18.90;69.40;;;;;;5088248;28;19920;-78
2022/08/03 06:42:04;;;;;;;;;;;18.90;69.40;;;;;;5089476;28;19919;-79
2022/08/03 06:44:30;;;;;;;;;;;19.00;69.50;;;;;;5070984;28;19912;-79
2022/08/03 06:46:56;;;;;;;;;;;19.00;69.50;;;;;;5087797;28;19908;-79
2022/08/03 06:49:21;;;;;;;;;;;19.00;69.60;;;;;;5070659;28;20256;-79
2022/08/03 06:51:47;;;;;;;;;;;18.90;69.50;;;;;;5070459;28;19920;-79
2022/08/03 06:54:12;;;;;;;;;;;19.00;69.70;;;;;;5089190;28;19915;-79
2022/08/03 06:56:38;;;;;;;;;;;19.10;69.70;;;;;;5089131;28;20405;-79
2022/08/03 06:59:04;;;;;;;;;;;19.20;69.60;;;;;;5071186;28;20010;-79
2022/08/03 07:01:29;;;;;;;;;;;19.30;69.50;;;;;;5087332;28;19939;-79
2022/08/03 07:03:55;;;;;;;;;;;19.40;69.50;;;;;;5070500;28;19916;-79
2022/08/03 07:06:20;;;;;;;;;;;19.30;69.40;;;;;;5070611;28;19920;-79
2022/08/03 07:08:46;;;;;;;;;;;19.40;69.50;;;;;;5087427;28;20312;-79
2022/08/03 07:11:11;;;;;;;;;;;19.40;69.50;;;;;;5070421;28;19958;-79
2022/08/03 07:13:40;;;;;;;;;;;19.50;69.60;;;;;;5070319;28;19919;-79
2022/08/03 07:16:05;;;;;;;;;;;19.60;69.50;;;;;;5087493;28;19919;-79
2022/08/03 07:18:31;;;;;;;;;;;19.60;69.30;;;;;;5088541;28;19912;-78
2022/08/03 07:20:57;;;;;;;;;;;19.60;69.30;;;;;;5088712;28;20381;-78
2022/08/03 07:23:22;;;;;;;;;;;19.60;69.20;;;;;;5087040;28;19958;-79
2022/08/03 07:25:49;;;;;;;;;;;19.50;69.30;;;;;;5088627;28;19912;-79
2022/08/03 07:28:15;;;;;;;;;;;19.40;69.40;;;;;;5087087;28;19908;-79
2022/08/03 07:30:41;;;;;;;;;;;19.50;69.60;;;;;;5087197;28;20360;-79
2022/08/03 07:33:06;;;;;;;;;;;19.50;69.60;;;;;;5087242;28;20002;-79
2022/08/03 07:35:32;;;;;;;;;;;19.70;70.20;;;;;;5086824;28;19916;-79
2022/08/03 07:37:57;;;;;;;;;;;19.80;69.60;;;;;;5069812;28;19912;-79
2022/08/03 07:40:23;;;;;;;;;;;19.90;69.50;;;;;;5086546;28;19928;-79
2022/08/03 07:42:49;;;;;;;;;;;20.00;69.40;;;;;;5070003;28;20322;-79
2022/08/03 07:45:16;;;;;;;;;;;20.00;69.30;;;;;;5069541;28;20150;-78
2022/08/03 07:47:42;;;;;;;;;;;20.10;69.40;;;;;;5070285;28;19912;-78
2022/08/03 07:50:07;;;;;;;;;;;20.10;69.40;;;;;;5086442;28;19916;-79
2022/08/03 07:52:48;;;;;;;;;;;20.10;69.50;;;;;;5087846;28;19979;-79
2022/08/03 07:55:14;;;;;;;;;;;20.20;69.50;;;;;;5072021;28;19916;-79
2022/08/03 07:57:40;;;;;;;;;;;20.20;69.30;;;;;;5087878;28;19915;-79
2022/08/03 08:00:10;;;;;;;;;;;20.20;69.50;;;;;;5086533;28;20349;-79
2022/08/03 08:02:36;;;;;;;;;;;20.30;69.80;;;;;;5086544;28;19962;-79
2022/08/03 08:05:01;;;;;;;;;;;20.60;69.90;;;;;;5087772;28;20291;-79
2022/08/03 08:07:27;;;;;;;;;;;21.20;69.80;;;;;;5069777;28;19916;-79
2022/08/03 08:09:52;;;;;;;;;;;21.40;69.10;;;;;;5086593;28;19955;-78
2022/08/03 08:12:18;;;;;;;;;;;21.40;68.90;;;;;;5086699;28;19908;-79
2022/08/03 08:14:46;;;;;;;;;;;21.40;68.80;;;;;;5069675;28;19926;-79
2022/08/03 08:17:12;;;;;;;;;;;21.30;68.90;;;;;;5070689;28;19947;-79
2022/08/03 08:19:38;;;;;;;;;;;21.20;69.10;;;;;;5086325;28;20356;-79
2022/08/03 08:22:05;;;;;;;;;;;21.20;69.30;;;;;;5069466;28;19955;-79
2022/08/03 08:24:32;;;;;;;;;;;21.40;69.60;;;;;;5086596;28;19947;-79
2022/08/03 08:26:58;;;;;;;;;;;22.40;70.60;;;;;;5091408;28;19954;-79
2022/08/03 08:29:24;;;;;;;;;;;23.40;69.50;;;;;;5090025;28;19912;-79
2022/08/03 08:31:50;;;;;;;;;;;23.80;68.40;;;;;;5091679;28;20005;-79
2022/08/03 08:34:15;;;;;;;;;;;23.80;68.00;;;;;;5090873;28;19939;-79
2022/08/03 08:36:41;;;;;;;;;;;23.50;67.90;;;;;;5073230;28;19935;-79
2022/08/03 08:39:06;;;;;;;;;;;23.30;68.20;;;;;;5073960;28;19924;-79
2022/08/03 08:41:34;;;;;;;;;;;23.20;68.40;;;;;;5092432;28;20382;-79
2022/08/03 08:44:00;;;;;;;;;;;23.10;68.60;;;;;;5091832;28;19997;-79
2022/08/03 08:46:27;;;;;;;;;;;23.10;69.00;;;;;;5091211;28;19939;-79
2022/08/03 08:48:53;;;;;;;;;;;23.30;69.20;;;;;;5091439;28;20329;-77
2022/08/03 08:51:20;;;;;;;;;;;23.40;68.90;;;;;;5091947;28;19908;-79
2022/08/03 08:53:48;;;;;;;;;;;23.30;68.50;;;;;;5089912;28;19916;-78
2022/08/03 08:56:15;;;;;;;;;;;22.90;68.40;;;;;;5089922;28;19913;-78
2022/08/03 08:58:43;;;;;;;;;;;22.50;69.00;;;;;;5090863;28;20342;-79
2022/08/03 09:01:09;;;;;;;;;;;22.10;68.60;;;;;;5089619;28;19908;-78
2022/08/03 09:03:34;;;;;;;;;;;21.60;68.90;;;;;;5072613;28;19931;-78
2022/08/03 09:06:01;;;;;;;;;;;21.30;69.20;;;;;;5090485;28;19908;-79
2022/08/03 09:08:27;;;;;;;;;;;21.00;69.40;;;;;;5092009;28;19918;-80
2022/08/03 09:10:53;;;;;;;;;;;20.80;69.70;;;;;;5090644;28;19954;-79
2022/08/03 09:13:18;;;;;;;;;;;20.70;69.90;;;;;;5089244;28;19958;-79
2022/08/03 09:15:45;;;;;;;;;;;20.70;70.10;;;;;;5090627;28;19958;-80
2022/08/03 09:18:11;;;;;;;;;;;20.90;70.00;;;;;;5089352;28;19912;-79
2022/08/03 09:20:36;;;;;;;;;;;21.20;70.30;;;;;;5072448;28;19919;-79
2022/08/03 09:23:03;;;;;;;;;;;21.60;69.90;;;;;;5090576;28;19922;-79
2022/08/03 09:25:40;;;;;;;;;;;21.90;69.70;;;;;;5090538;28;19916;-78
2022/08/03 09:28:10;;;;;;;;;;;22.00;69.30;;;;;;5089547;28;19915;-78
2022/08/03 09:30:40;;;;;;;;;;;22.00;69.10;;;;;;5090437;28;19927;-79
2022/08/03 09:33:07;;;;;;;;;;;21.90;69.00;;;;;;5090440;28;19915;-79
2022/08/03 09:35:38;;;;;;;;;;;21.80;69.10;;;;;;5090350;28;19908;-79
2022/08/03 09:38:13;;;;;;;;;;;21.70;69.00;;;;;;5088970;28;19935;-79
2022/08/03 09:40:39;;;;;;;;;;;21.50;69.00;;;;;;5088619;28;19940;-79
2022/08/03 09:43:06;;;;;;;;;;;21.40;69.10;;;;;;5088205;28;19943;-79
2022/08/03 09:45:33;;;;;;;;;;;21.20;69.20;;;;;;5088707;28;19962;-79
2022/08/03 09:48:18;;;;;;;;;;;21.20;69.50;;;;;;5071691;28;19924;-79
2022/08/03 09:50:48;;;;;;;;;;;21.40;69.80;;;;;;5089626;28;20003;-79
2022/08/03 09:53:14;;;;;;;;;;;21.60;69.80;;;;;;5088644;28;19916;-79
2022/08/03 09:55:48;;;;;;;;;;;21.90;69.60;;;;;;5088411;28;20384;-79
2022/08/03 09:58:14;;;;;;;;;;;22.10;69.40;;;;;;5088655;28;20037;-79
2022/08/03 10:01:00;;;;;;;;;;;22.20;69.10;;;;;;5088371;28;19947;-79
2022/08/03 10:03:27;;;;;;;;;;;22.20;69.00;;;;;;5087970;28;19919;-80
2022/08/03 10:05:53;;;;;;;;;;;22.20;69.30;;;;;;5088118;28;19909;-79
2022/08/03 10:08:18;;;;;;;;;;;22.30;69.20;;;;;;5088592;28;20003;-79
2022/08/03 10:10:46;;;;;;;;;;;22.30;69.10;;;;;;5071280;28;20399;-79
2022/08/03 10:13:15;;;;;;;;;;;22.20;68.90;;;;;;5088284;28;20323;-79
2022/08/03 10:15:41;;;;;;;;;;;22.00;69.00;;;;;;5088049;28;19912;-79
2022/08/03 10:18:07;;;;;;;;;;;22.00;69.40;;;;;;5089217;28;19908;-79
2022/08/03 10:20:42;;;;;;;;;;;22.20;69.70;;;;;;5087951;28;19944;-79
2022/08/03 10:23:09;;;;;;;;;;;22.40;69.60;;;;;;5089186;28;19916;-81
2022/08/03 10:25:36;;;;;;;;;;;22.60;69.30;;;;;;5089664;28;19908;-80
2022/08/03 10:28:05;;;;;;;;;;;22.60;69.00;;;;;;5088740;28;19915;-80
2022/08/03 10:30:31;;;;;;;;;;;22.60;68.90;;;;;;5089032;28;19920;-79
2022/08/03 10:33:20;;;;;;;;;;;22.50;69.00;;;;;;5070571;28;19912;-80
2022/08/03 10:35:49;;;;;;;;;;;22.60;69.50;;;;;;5083302;28;19914;-80
2022/08/03 10:38:24;;;;;;;;;;;22.80;69.30;;;;;;5087828;28;19908;-80
2022/08/03 10:40:52;;;;;;;;;;;22.80;69.20;;;;;;5088458;28;20330;-79
2022/08/03 10:43:19;;;;;;;;;;;22.80;69.00;;;;;;5087307;28;20208;-79
2022/08/03 10:45:45;;;;;;;;;;;22.70;68.90;;;;;;5088694;28;19912;-80
2022/08/03 10:48:11;;;;;;;;;;;22.60;69.00;;;;;;5087539;28;19961;-79
2022/08/03 10:50:37;;;;;;;;;;;22.60;69.10;;;;;;5088520;28;19913;-80
2022/08/03 10:53:05;;;;;;;;;;;22.60;69.40;;;;;;5088991;28;19915;-79
2022/08/03 10:58:35;;;;;;;;;;;24.50;71.20;;;;;;5089417;28;19958;-80
2022/08/03 11:01:02;;;;;;;;;;;25.70;70.00;;;;;;5088455;28;19913;-80
2022/08/03 11:03:28;;;;;;;;;;;26.30;69.20;;;;;;5086860;28;19931;-80
2022/08/03 11:06:12;;;;;;;;;;;26.40;68.40;;;;;;5086817;28;19912;-80
2022/08/03 11:08:38;;;;;;;;;;;26.10;67.80;;;;;;5088677;28;19908;-80
2022/08/03 11:11:24;;;;;;;;;;;25.50;67.90;;;;;;5086943;28;20438;-80
2022/08/03 11:13:55;;;;;;;;;;;25.20;68.40;;;;;;5086441;28;20391;-80
2022/08/03 11:16:22;;;;;;;;;;;24.90;68.70;;;;;;5088521;28;19908;-80
2022/08/03 11:18:58;;;;;;;;;;;24.90;68.90;;;;;;5088720;28;19937;-80
2022/08/03 11:21:59;;;;;;;;;;;24.90;69.10;;;;;;5087996;28;19912;-80
2022/08/03 11:24:39;;;;;;;;;;;25.10;69.40;;;;;;5028885;28;19966;-79
2022/08/03 11:27:17;;;;;;;;;;;25.00;69.00;;;;;;5083320;28;20384;-78
2022/08/03 11:30:01;;;;;;;;;;;24.80;68.90;;;;;;5086252;28;19980;-79
2022/08/03 11:32:36;;;;;;;;;;;24.50;68.90;;;;;;5086550;28;19908;-80
2022/08/03 11:35:21;;;;;;;;;;;24.30;69.10;;;;;;5086548;28;19953;-79
2022/08/03 11:37:52;;;;;;;;;;;24.10;68.90;;;;;;5087996;28;20356;-79
2022/08/03 11:40:37;;;;;;;;;;;23.90;69.30;;;;;;5087450;28;19966;-79
2022/08/03 11:43:04;;;;;;;;;;;24.00;69.60;;;;;;5087389;28;19927;-79
2022/08/03 11:45:30;;;;;;;;;;;24.10;69.50;;;;;;5086423;28;19908;-79
2022/08/03 11:47:57;;;;;;;;;;;24.50;69.90;;;;;;5086262;28;20015;-79
2022/08/03 11:50:23;;;;;;;;;;;24.90;69.80;;;;;;5086115;28;19908;-80
2022/08/03 11:52:49;;;;;;;;;;;25.10;69.20;;;;;;5087151;28;19923;-79
2022/08/03 11:55:17;;;;;;;;;;;25.10;68.70;;;;;;5069505;28;20280;-80
2022/08/03 11:57:45;;;;;;;;;;;24.90;68.60;;;;;;5085992;28;19909;-79
2022/08/03 12:00:22;;;;;;;;;;;24.60;68.60;;;;;;5086582;28;19908;-80
2022/08/03 12:03:04;;;;;;;;;;;24.30;68.60;;;;;;5085709;28;19916;-79
2022/08/03 12:05:42;;;;;;;;;;;24.10;68.60;;;;;;5086150;28;20309;-79
2022/08/03 12:08:09;;;;;;;;;;;23.70;68.70;;;;;;5087666;28;19939;-80
2022/08/03 12:10:35;;;;;;;;;;;23.30;69.00;;;;;;5085915;28;20400;-73
2022/08/03 12:13:04;;;;;;;;;;;23.30;69.40;;;;;;5088011;28;19951;-80
2022/08/03 12:15:32;;;;;;;;;;;23.60;70.20;;;;;;5086392;28;19908;-80
2022/08/03 12:17:58;;;;;;;;;;;24.50;70.90;;;;;;5086278;28;19961;-80
2022/08/03 12:20:28;;;;;;;;;;;25.10;70.10;;;;;;5085837;28;19916;-80
2022/08/03 12:22:54;;;;;;;;;;;25.30;69.40;;;;;;5085867;28;19916;-80
2022/08/03 12:25:23;;;;;;;;;;;25.20;68.80;;;;;;5086149;28;19916;-80
2022/08/03 12:27:50;;;;;;;;;;;24.90;68.70;;;;;;5085775;28;19916;-80
2022/08/03 12:30:16;;;;;;;;;;;24.70;68.70;;;;;;5087135;28;19912;-79
2022/08/03 12:32:42;;;;;;;;;;;24.50;68.90;;;;;;5087424;28;19909;-80
2022/08/03 12:35:08;;;;;;;;;;;24.30;69.00;;;;;;5088131;28;20014;-81
2022/08/03 12:37:34;;;;;;;;;;;24.20;69.30;;;;;;5086231;28;19912;-80
2022/08/03 12:40:00;;;;;;;;;;;24.30;69.50;;;;;;5086837;28;19932;-81
2022/08/03 12:42:33;;;;;;;;;;;24.20;69.30;;;;;;5085628;28;20447;-69
2022/08/03 12:44:59;;;;;;;;;;;24.10;69.10;;;;;;5087279;28;19912;-81
2022/08/03 12:47:24;;;;;;;;;;;23.70;68.90;;;;;;5086384;28;19908;-81
2022/08/03 12:49:51;;;;;;;;;;;23.30;68.80;;;;;;5086325;28;20417;-80
2022/08/03 12:52:17;;;;;;;;;;;22.90;69.00;;;;;;5085982;28;20348;-80
2022/08/03 12:54:53;;;;;;;;;;;22.50;69.30;;;;;;5069032;28;19916;-80
2022/08/03 12:57:18;;;;;;;;;;;22.30;69.60;;;;;;5086819;28;19938;-79
2022/08/03 12:59:47;;;;;;;;;;;22.20;69.70;;;;;;5068768;28;19912;-80
2022/08/03 13:02:22;;;;;;;;;;;22.20;69.90;;;;;;5085307;28;19916;-79
2022/08/03 13:04:48;;;;;;;;;;;22.30;70.10;;;;;;5085951;28;19979;-80
2022/08/03 13:07:15;;;;;;;;;;;22.50;70.00;;;;;;5085577;28;19931;-80
2022/08/03 13:09:45;;;;;;;;;;;22.50;69.90;;;;;;5087436;28;19954;-79
2022/08/03 13:12:12;;;;;;;;;;;22.60;69.70;;;;;;5087405;28;19911;-80
2022/08/03 13:14:38;;;;;;;;;;;22.70;69.60;;;;;;5089143;28;20007;-79
2022/08/03 13:17:05;;;;;;;;;;;22.80;69.80;;;;;;5089651;28;20423;-79
2022/08/03 13:19:35;;;;;;;;;;;23.00;69.80;;;;;;5073035;28;19912;-79
2022/08/03 13:22:01;;;;;;;;;;;23.30;69.80;;;;;;5089401;28;19971;-81
2022/08/03 13:24:28;;;;;;;;;;;23.60;70.30;;;;;;5071765;28;19916;-81
2022/08/03 13:26:53;;;;;;;;;;;24.10;70.30;;;;;;5089331;28;19964;-80
2022/08/03 13:29:19;;;;;;;;;;;24.90;70.30;;;;;;5090726;28;19962;-79
2022/08/03 13:31:44;;;;;;;;;;;25.20;69.60;;;;;;5072315;28;20311;-80
2022/08/03 13:34:10;;;;;;;;;;;25.20;69.40;;;;;;5073471;28;19912;-80
2022/08/03 13:36:35;;;;;;;;;;;25.20;69.40;;;;;;5089202;28;19919;-80
2022/08/03 13:39:01;;;;;;;;;;;25.30;69.60;;;;;;5072260;28;20010;-80
2022/08/03 13:41:26;;;;;;;;;;;25.10;69.40;;;;;;5089209;28;19916;-80
2022/08/03 13:43:52;;;;;;;;;;;25.00;69.40;;;;;;5089690;28;20382;-80
2022/08/03 13:46:19;;;;;;;;;;;24.90;69.60;;;;;;5072274;28;19912;-79
2022/08/03 13:48:44;;;;;;;;;;;24.80;69.60;;;;;;5089058;28;20053;-79
2022/08/03 13:51:10;;;;;;;;;;;24.80;69.60;;;;;;5090301;28;19947;-79
2022/08/03 13:53:35;;;;;;;;;;;24.60;69.50;;;;;;5071843;28;19916;-79
2022/08/03 13:56:01;;;;;;;;;;;24.60;69.60;;;;;;5071586;28;20284;-79
2022/08/03 13:58:26;;;;;;;;;;;24.60;69.70;;;;;;5071775;28;19916;-79
2022/08/03 14:00:52;;;;;;;;;;;24.60;69.80;;;;;;5071197;28;19971;-79
2022/08/03 14:03:17;;;;;;;;;;;24.70;69.70;;;;;;5088163;28;20364;-79
2022/08/03 14:05:43;;;;;;;;;;;24.70;69.60;;;;;;5088363;28;19928;-79
2022/08/03 14:08:09;;;;;;;;;;;24.70;69.50;;;;;;5089588;28;19964;-80
2022/08/03 14:10:36;;;;;;;;;;;24.80;69.50;;;;;;5071126;28;19912;-80
2022/08/03 14:13:01;;;;;;;;;;;24.90;69.60;;;;;;5087720;28;20356;-80
2022/08/03 14:15:27;;;;;;;;;;;24.90;69.60;;;;;;5087781;28;19928;-79
2022/08/03 14:17:53;;;;;;;;;;;25.00;69.40;;;;;;5070568;28;20564;-79
2022/08/03 14:20:18;;;;;;;;;;;24.90;69.20;;;;;;5087836;28;20007;-80
2022/08/03 14:22:44;;;;;;;;;;;24.80;69.20;;;;;;5070375;28;19917;-79
2022/08/03 14:25:09;;;;;;;;;;;24.60;69.30;;;;;;5086667;28;19931;-80
2022/08/03 14:27:35;;;;;;;;;;;24.60;69.50;;;;;;5089329;28;19922;-79
2022/08/03 14:30:01;;;;;;;;;;;24.70;69.60;;;;;;5070533;28;20279;-80